sensor_id;sensor_type;location;lat;lon;timestamp;P1;durP1;ratioP1;P2;durP2;ratioP2
23802;SDS011;12082;51.786;6.018;2023-07-16T00:00:44;25.70;;;23.20;;
23802;SDS011;12082;51.786;6.018;2023-07-16T00:03:09;25.27;;;22.77;;
23802;SDS011;12082;51.786;6.018;2023-07-16T00:05:38;26.33;;;23.70;;
23802;SDS011;12082;51.786;6.018;2023-07-16T00:08:04;26.63;;;23.87;;
23802;SDS011;12082;51.786;6.018;2023-07-16T00:10:29;25.33;;;22.70;;
23802;SDS011;12082;51.786;6.018;2023-07-16T00:12:57;26.17;;;23.70;;
23802;SDS011;12082;51.786;6.018;2023-07-16T00:15:24;26.50;;;23.77;;
23802;SDS011;12082;51.786;6.018;2023-07-16T00:17:50;24.67;;;22.33;;
23802;SDS011;12082;51.786;6.018;2023-07-16T00:20:15;27.13;;;24.47;;
23802;SDS011;12082;51.786;6.018;2023-07-16T00:22:41;25.60;;;23.37;;
23802;SDS011;12082;51.786;6.018;2023-07-16T00:25:07;25.37;;;22.87;;
23802;SDS011;12082;51.786;6.018;2023-07-16T00:27:32;24.67;;;21.77;;
23802;SDS011;12082;51.786;6.018;2023-07-16T00:29:58;22.63;;;20.83;;
23802;SDS011;12082;51.786;6.018;2023-07-16T00:32:23;24.13;;;21.93;;
23802;SDS011;12082;51.786;6.018;2023-07-16T00:34:49;23.13;;;21.47;;
23802;SDS011;12082;51.786;6.018;2023-07-16T00:37:15;24.07;;;21.87;;
23802;SDS011;12082;51.786;6.018;2023-07-16T00:39:40;23.40;;;21.20;;
23802;SDS011;12082;51.786;6.018;2023-07-16T00:42:06;23.23;;;21.17;;
23802;SDS011;12082;51.786;6.018;2023-07-16T00:44:31;23.60;;;21.33;;
23802;SDS011;12082;51.786;6.018;2023-07-16T00:46:57;21.40;;;19.70;;
23802;SDS011;12082;51.786;6.018;2023-07-16T00:49:23;22.27;;;19.93;;
23802;SDS011;12082;51.786;6.018;2023-07-16T00:51:49;23.03;;;21.13;;
23802;SDS011;12082;51.786;6.018;2023-07-16T00:54:16;22.80;;;20.90;;
23802;SDS011;12082;51.786;6.018;2023-07-16T00:56:43;27.70;;;22.43;;
23802;SDS011;12082;51.786;6.018;2023-07-16T00:59:08;23.10;;;21.17;;
23802;SDS011;12082;51.786;6.018;2023-07-16T01:01:34;23.93;;;22.00;;
23802;SDS011;12082;51.786;6.018;2023-07-16T01:03:59;23.07;;;21.13;;
23802;SDS011;12082;51.786;6.018;2023-07-16T01:06:28;24.93;;;22.53;;
23802;SDS011;12082;51.786;6.018;2023-07-16T01:09:01;25.77;;;23.33;;
23802;SDS011;12082;51.786;6.018;2023-07-16T01:11:29;26.33;;;24.07;;
23802;SDS011;12082;51.786;6.018;2023-07-16T01:13:57;26.50;;;24.17;;
23802;SDS011;12082;51.786;6.018;2023-07-16T01:16:24;28.27;;;25.70;;
23802;SDS011;12082;51.786;6.018;2023-07-16T01:18:50;27.17;;;24.70;;
23802;SDS011;12082;51.786;6.018;2023-07-16T01:21:16;27.00;;;24.70;;
23802;SDS011;12082;51.786;6.018;2023-07-16T01:24:05;25.97;;;24.17;;
23802;SDS011;12082;51.786;6.018;2023-07-16T01:26:51;26.00;;;23.77;;
23802;SDS011;12082;51.786;6.018;2023-07-16T01:29:58;27.57;;;24.90;;
23802;SDS011;12082;51.786;6.018;2023-07-16T01:32:30;31.30;;;24.37;;
23802;SDS011;12082;51.786;6.018;2023-07-16T01:34:57;25.73;;;23.47;;
23802;SDS011;12082;51.786;6.018;2023-07-16T01:37:24;26.07;;;23.97;;
23802;SDS011;12082;51.786;6.018;2023-07-16T01:39:49;27.90;;;25.67;;
23802;SDS011;12082;51.786;6.018;2023-07-16T01:42:15;28.97;;;25.30;;
23802;SDS011;12082;51.786;6.018;2023-07-16T01:44:41;27.37;;;24.53;;
23802;SDS011;12082;51.786;6.018;2023-07-16T01:49:54;26.67;;;24.63;;
23802;SDS011;12082;51.786;6.018;2023-07-16T01:52:20;27.50;;;25.27;;
23802;SDS011;12082;51.786;6.018;2023-07-16T01:54:46;27.13;;;25.03;;
23802;SDS011;12082;51.786;6.018;2023-07-16T01:57:11;28.43;;;26.07;;
23802;SDS011;12082;51.786;6.018;2023-07-16T01:59:37;28.63;;;26.40;;
23802;SDS011;12082;51.786;6.018;2023-07-16T02:02:03;27.87;;;25.63;;
23802;SDS011;12082;51.786;6.018;2023-07-16T02:04:29;29.27;;;26.93;;
23802;SDS011;12082;51.786;6.018;2023-07-16T02:06:54;28.43;;;25.80;;
23802;SDS011;12082;51.786;6.018;2023-07-16T02:09:20;27.80;;;25.50;;
23802;SDS011;12082;51.786;6.018;2023-07-16T02:11:46;28.67;;;26.43;;
23802;SDS011;12082;51.786;6.018;2023-07-16T02:14:12;26.80;;;24.90;;
23802;SDS011;12082;51.786;6.018;2023-07-16T02:16:39;30.30;;;27.80;;
23802;SDS011;12082;51.786;6.018;2023-07-16T02:19:04;28.67;;;26.13;;
23802;SDS011;12082;51.786;6.018;2023-07-16T02:21:30;30.20;;;27.97;;
23802;SDS011;12082;51.786;6.018;2023-07-16T02:23:55;28.83;;;26.17;;
23802;SDS011;12082;51.786;6.018;2023-07-16T02:26:21;28.57;;;26.27;;
23802;SDS011;12082;51.786;6.018;2023-07-16T02:28:46;28.63;;;25.63;;
23802;SDS011;12082;51.786;6.018;2023-07-16T02:31:12;27.33;;;24.93;;
23802;SDS011;12082;51.786;6.018;2023-07-16T02:33:37;27.97;;;25.00;;
23802;SDS011;12082;51.786;6.018;2023-07-16T02:36:03;26.90;;;24.80;;
23802;SDS011;12082;51.786;6.018;2023-07-16T02:38:29;27.13;;;24.83;;
23802;SDS011;12082;51.786;6.018;2023-07-16T02:40:54;29.80;;;26.23;;
23802;SDS011;12082;51.786;6.018;2023-07-16T02:43:21;29.37;;;26.43;;
23802;SDS011;12082;51.786;6.018;2023-07-16T02:45:46;28.37;;;25.97;;
23802;SDS011;12082;51.786;6.018;2023-07-16T02:48:12;28.07;;;25.47;;
23802;SDS011;12082;51.786;6.018;2023-07-16T02:50:37;27.27;;;25.20;;
23802;SDS011;12082;51.786;6.018;2023-07-16T02:53:03;28.57;;;26.30;;
23802;SDS011;12082;51.786;6.018;2023-07-16T02:55:29;29.83;;;27.47;;
23802;SDS011;12082;51.786;6.018;2023-07-16T02:57:55;29.90;;;27.83;;
23802;SDS011;12082;51.786;6.018;2023-07-16T03:00:21;29.43;;;27.03;;
23802;SDS011;12082;51.786;6.018;2023-07-16T03:02:47;30.67;;;28.17;;
23802;SDS011;12082;51.786;6.018;2023-07-16T03:05:14;29.63;;;26.60;;
23802;SDS011;12082;51.786;6.018;2023-07-16T03:07:40;35.13;;;27.50;;
23802;SDS011;12082;51.786;6.018;2023-07-16T03:10:05;31.23;;;28.80;;
23802;SDS011;12082;51.786;6.018;2023-07-16T03:12:31;30.27;;;27.73;;
23802;SDS011;12082;51.786;6.018;2023-07-16T03:14:57;29.77;;;26.90;;
23802;SDS011;12082;51.786;6.018;2023-07-16T03:17:22;29.13;;;26.53;;
23802;SDS011;12082;51.786;6.018;2023-07-16T03:19:48;28.53;;;26.17;;
23802;SDS011;12082;51.786;6.018;2023-07-16T03:22:13;29.00;;;26.50;;
23802;SDS011;12082;51.786;6.018;2023-07-16T03:24:39;28.27;;;25.87;;
23802;SDS011;12082;51.786;6.018;2023-07-16T03:27:05;29.23;;;26.47;;
23802;SDS011;12082;51.786;6.018;2023-07-16T03:29:32;30.13;;;27.33;;
23802;SDS011;12082;51.786;6.018;2023-07-16T03:31:58;29.53;;;27.33;;
23802;SDS011;12082;51.786;6.018;2023-07-16T03:34:23;30.57;;;27.43;;
23802;SDS011;12082;51.786;6.018;2023-07-16T03:36:49;30.23;;;27.70;;
23802;SDS011;12082;51.786;6.018;2023-07-16T03:39:15;32.13;;;29.33;;
23802;SDS011;12082;51.786;6.018;2023-07-16T03:41:40;33.00;;;30.03;;
23802;SDS011;12082;51.786;6.018;2023-07-16T03:44:06;32.80;;;30.40;;
23802;SDS011;12082;51.786;6.018;2023-07-16T03:46:31;32.10;;;29.90;;
23802;SDS011;12082;51.786;6.018;2023-07-16T03:48:57;32.83;;;30.30;;
23802;SDS011;12082;51.786;6.018;2023-07-16T03:51:22;33.93;;;31.23;;
23802;SDS011;12082;51.786;6.018;2023-07-16T03:53:48;33.37;;;30.53;;
23802;SDS011;12082;51.786;6.018;2023-07-16T03:56:13;33.00;;;30.10;;
23802;SDS011;12082;51.786;6.018;2023-07-16T03:58:39;34.67;;;31.00;;
23802;SDS011;12082;51.786;6.018;2023-07-16T04:01:05;34.47;;;31.50;;
23802;SDS011;12082;51.786;6.018;2023-07-16T04:03:30;35.47;;;32.00;;
23802;SDS011;12082;51.786;6.018;2023-07-16T04:06:03;35.03;;;31.77;;
23802;SDS011;12082;51.786;6.018;2023-07-16T04:08:29;34.37;;;31.23;;
23802;SDS011;12082;51.786;6.018;2023-07-16T04:10:54;34.30;;;31.47;;
23802;SDS011;12082;51.786;6.018;2023-07-16T04:13:20;34.90;;;30.43;;
23802;SDS011;12082;51.786;6.018;2023-07-16T04:15:45;33.93;;;30.97;;
23802;SDS011;12082;51.786;6.018;2023-07-16T04:18:11;33.40;;;30.33;;
23802;SDS011;12082;51.786;6.018;2023-07-16T04:20:37;31.83;;;29.53;;
23802;SDS011;12082;51.786;6.018;2023-07-16T04:23:02;31.33;;;28.80;;
23802;SDS011;12082;51.786;6.018;2023-07-16T04:25:28;31.87;;;29.43;;
23802;SDS011;12082;51.786;6.018;2023-07-16T04:27:53;33.90;;;29.27;;
23802;SDS011;12082;51.786;6.018;2023-07-16T04:30:19;28.70;;;26.33;;
23802;SDS011;12082;51.786;6.018;2023-07-16T04:32:45;29.23;;;27.03;;
23802;SDS011;12082;51.786;6.018;2023-07-16T04:35:10;30.60;;;28.07;;
23802;SDS011;12082;51.786;6.018;2023-07-16T04:37:36;28.70;;;26.00;;
23802;SDS011;12082;51.786;6.018;2023-07-16T04:40:01;28.30;;;25.83;;
23802;SDS011;12082;51.786;6.018;2023-07-16T04:42:29;26.73;;;24.47;;
23802;SDS011;12082;51.786;6.018;2023-07-16T04:44:54;27.67;;;24.97;;
23802;SDS011;12082;51.786;6.018;2023-07-16T04:47:20;28.67;;;26.33;;
23802;SDS011;12082;51.786;6.018;2023-07-16T04:49:46;28.53;;;26.17;;
23802;SDS011;12082;51.786;6.018;2023-07-16T04:52:11;28.57;;;26.57;;
23802;SDS011;12082;51.786;6.018;2023-07-16T04:54:37;27.80;;;26.00;;
23802;SDS011;12082;51.786;6.018;2023-07-16T04:57:05;29.40;;;27.17;;
23802;SDS011;12082;51.786;6.018;2023-07-16T04:59:31;28.87;;;26.50;;
23802;SDS011;12082;51.786;6.018;2023-07-16T05:01:57;30.13;;;27.67;;
23802;SDS011;12082;51.786;6.018;2023-07-16T05:04:22;30.33;;;27.90;;
23802;SDS011;12082;51.786;6.018;2023-07-16T05:06:48;32.70;;;30.10;;
23802;SDS011;12082;51.786;6.018;2023-07-16T05:09:13;30.67;;;28.27;;
23802;SDS011;12082;51.786;6.018;2023-07-16T05:11:39;30.20;;;27.97;;
23802;SDS011;12082;51.786;6.018;2023-07-16T05:14:05;28.93;;;26.73;;
23802;SDS011;12082;51.786;6.018;2023-07-16T05:16:30;31.77;;;29.57;;
23802;SDS011;12082;51.786;6.018;2023-07-16T05:18:56;32.73;;;29.83;;
23802;SDS011;12082;51.786;6.018;2023-07-16T05:21:21;31.63;;;29.23;;
23802;SDS011;12082;51.786;6.018;2023-07-16T05:23:47;30.03;;;26.47;;
23802;SDS011;12082;51.786;6.018;2023-07-16T05:26:12;28.23;;;26.43;;
23802;SDS011;12082;51.786;6.018;2023-07-16T05:28:38;26.93;;;25.10;;
23802;SDS011;12082;51.786;6.018;2023-07-16T05:31:03;29.50;;;27.00;;
23802;SDS011;12082;51.786;6.018;2023-07-16T05:33:29;27.13;;;25.00;;
23802;SDS011;12082;51.786;6.018;2023-07-16T05:35:54;26.40;;;23.73;;
23802;SDS011;12082;51.786;6.018;2023-07-16T05:38:20;25.83;;;23.83;;
23802;SDS011;12082;51.786;6.018;2023-07-16T05:40:46;26.47;;;24.40;;
23802;SDS011;12082;51.786;6.018;2023-07-16T05:43:11;26.80;;;24.33;;
23802;SDS011;12082;51.786;6.018;2023-07-16T05:45:38;24.03;;;21.83;;
23802;SDS011;12082;51.786;6.018;2023-07-16T05:48:03;23.43;;;21.57;;
23802;SDS011;12082;51.786;6.018;2023-07-16T05:50:29;23.93;;;21.53;;
23802;SDS011;12082;51.786;6.018;2023-07-16T05:52:55;22.67;;;18.53;;
23802;SDS011;12082;51.786;6.018;2023-07-16T05:55:20;17.50;;;16.03;;
23802;SDS011;12082;51.786;6.018;2023-07-16T05:57:46;16.77;;;14.80;;
23802;SDS011;12082;51.786;6.018;2023-07-16T06:00:11;14.53;;;12.07;;
23802;SDS011;12082;51.786;6.018;2023-07-16T06:02:38;13.27;;;11.67;;
23802;SDS011;12082;51.786;6.018;2023-07-16T06:05:04;13.70;;;12.37;;
23802;SDS011;12082;51.786;6.018;2023-07-16T06:07:30;14.80;;;13.33;;
23802;SDS011;12082;51.786;6.018;2023-07-16T06:09:56;13.57;;;12.27;;
23802;SDS011;12082;51.786;6.018;2023-07-16T06:12:22;14.37;;;12.87;;
23802;SDS011;12082;51.786;6.018;2023-07-16T06:14:48;13.80;;;12.30;;
23802;SDS011;12082;51.786;6.018;2023-07-16T06:17:13;16.87;;;12.20;;
23802;SDS011;12082;51.786;6.018;2023-07-16T06:19:39;13.87;;;12.57;;
23802;SDS011;12082;51.786;6.018;2023-07-16T06:22:05;12.33;;;11.30;;
23802;SDS011;12082;51.786;6.018;2023-07-16T06:24:30;12.77;;;11.20;;
23802;SDS011;12082;51.786;6.018;2023-07-16T06:26:56;11.80;;;10.90;;
23802;SDS011;12082;51.786;6.018;2023-07-16T06:29:21;11.10;;;10.00;;
23802;SDS011;12082;51.786;6.018;2023-07-16T06:31:56;13.40;;;11.87;;
23802;SDS011;12082;51.786;6.018;2023-07-16T06:34:23;14.07;;;9.77;;
23802;SDS011;12082;51.786;6.018;2023-07-16T06:36:49;12.93;;;11.67;;
23802;SDS011;12082;51.786;6.018;2023-07-16T06:39:15;12.13;;;10.30;;
23802;SDS011;12082;51.786;6.018;2023-07-16T06:41:40;10.30;;;8.83;;
23802;SDS011;12082;51.786;6.018;2023-07-16T06:44:06;11.60;;;9.97;;
23802;SDS011;12082;51.786;6.018;2023-07-16T06:46:31;10.77;;;9.73;;
23802;SDS011;12082;51.786;6.018;2023-07-16T06:48:57;13.33;;;10.07;;
23802;SDS011;12082;51.786;6.018;2023-07-16T06:51:22;10.93;;;9.43;;
23802;SDS011;12082;51.786;6.018;2023-07-16T06:53:48;16.47;;;9.67;;
23802;SDS011;12082;51.786;6.018;2023-07-16T06:56:14;15.23;;;9.53;;
23802;SDS011;12082;51.786;6.018;2023-07-16T06:58:40;13.13;;;9.77;;
23802;SDS011;12082;51.786;6.018;2023-07-16T07:01:05;13.40;;;10.37;;
23802;SDS011;12082;51.786;6.018;2023-07-16T07:03:31;13.50;;;9.93;;
23802;SDS011;12082;51.786;6.018;2023-07-16T07:05:58;15.23;;;9.37;;
23802;SDS011;12082;51.786;6.018;2023-07-16T07:08:27;10.33;;;9.30;;
23802;SDS011;12082;51.786;6.018;2023-07-16T07:10:52;10.17;;;9.07;;
23802;SDS011;12082;51.786;6.018;2023-07-16T07:13:18;9.90;;;8.87;;
23802;SDS011;12082;51.786;6.018;2023-07-16T07:15:43;16.03;;;9.60;;
23802;SDS011;12082;51.786;6.018;2023-07-16T07:18:09;10.43;;;8.07;;
23802;SDS011;12082;51.786;6.018;2023-07-16T07:20:35;8.97;;;8.07;;
23802;SDS011;12082;51.786;6.018;2023-07-16T07:23:00;13.73;;;8.53;;
23802;SDS011;12082;51.786;6.018;2023-07-16T07:25:28;9.97;;;8.20;;
23802;SDS011;12082;51.786;6.018;2023-07-16T07:27:53;11.00;;;8.40;;
23802;SDS011;12082;51.786;6.018;2023-07-16T07:30:19;10.93;;;9.00;;
23802;SDS011;12082;51.786;6.018;2023-07-16T07:32:45;11.70;;;8.57;;
23802;SDS011;12082;51.786;6.018;2023-07-16T07:35:10;10.97;;;8.43;;
23802;SDS011;12082;51.786;6.018;2023-07-16T07:37:36;8.83;;;7.97;;
23802;SDS011;12082;51.786;6.018;2023-07-16T07:40:02;9.27;;;8.47;;
23802;SDS011;12082;51.786;6.018;2023-07-16T07:42:28;16.67;;;9.40;;
23802;SDS011;12082;51.786;6.018;2023-07-16T07:44:54;9.43;;;8.53;;
23802;SDS011;12082;51.786;6.018;2023-07-16T07:47:20;9.83;;;8.83;;
23802;SDS011;12082;51.786;6.018;2023-07-16T07:49:46;10.50;;;9.40;;
23802;SDS011;12082;51.786;6.018;2023-07-16T07:52:11;16.17;;;8.93;;
23802;SDS011;12082;51.786;6.018;2023-07-16T07:54:37;13.13;;;10.03;;
23802;SDS011;12082;51.786;6.018;2023-07-16T07:57:03;12.77;;;9.30;;
23802;SDS011;12082;51.786;6.018;2023-07-16T07:59:30;12.23;;;9.77;;
23802;SDS011;12082;51.786;6.018;2023-07-16T08:01:56;13.10;;;10.10;;
23802;SDS011;12082;51.786;6.018;2023-07-16T08:04:26;13.73;;;11.97;;
23802;SDS011;12082;51.786;6.018;2023-07-16T08:06:53;12.40;;;10.10;;
23802;SDS011;12082;51.786;6.018;2023-07-16T08:09:19;12.03;;;9.37;;
23802;SDS011;12082;51.786;6.018;2023-07-16T08:11:45;10.00;;;9.00;;
23802;SDS011;12082;51.786;6.018;2023-07-16T08:14:10;12.37;;;10.97;;
23802;SDS011;12082;51.786;6.018;2023-07-16T08:16:36;12.20;;;10.40;;
23802;SDS011;12082;51.786;6.018;2023-07-16T08:19:01;11.77;;;9.43;;
23802;SDS011;12082;51.786;6.018;2023-07-16T08:21:27;15.77;;;9.60;;
23802;SDS011;12082;51.786;6.018;2023-07-16T08:23:53;14.50;;;9.43;;
23802;SDS011;12082;51.786;6.018;2023-07-16T08:26:18;15.70;;;11.07;;
23802;SDS011;12082;51.786;6.018;2023-07-16T08:28:44;10.40;;;9.40;;
23802;SDS011;12082;51.786;6.018;2023-07-16T08:31:11;11.63;;;9.03;;
23802;SDS011;12082;51.786;6.018;2023-07-16T08:33:37;12.57;;;9.03;;
23802;SDS011;12082;51.786;6.018;2023-07-16T08:36:03;15.00;;;9.93;;
23802;SDS011;12082;51.786;6.018;2023-07-16T08:38:29;12.93;;;8.93;;
23802;SDS011;12082;51.786;6.018;2023-07-16T08:40:55;11.70;;;9.40;;
23802;SDS011;12082;51.786;6.018;2023-07-16T08:43:21;11.53;;;8.87;;
23802;SDS011;12082;51.786;6.018;2023-07-16T08:45:47;14.00;;;10.67;;
23802;SDS011;12082;51.786;6.018;2023-07-16T08:48:14;12.40;;;8.93;;
23802;SDS011;12082;51.786;6.018;2023-07-16T08:50:43;15.77;;;9.37;;
23802;SDS011;12082;51.786;6.018;2023-07-16T08:53:12;10.30;;;9.40;;
23802;SDS011;12082;51.786;6.018;2023-07-16T08:55:40;10.57;;;9.50;;
23802;SDS011;12082;51.786;6.018;2023-07-16T08:58:05;9.27;;;8.40;;
23802;SDS011;12082;51.786;6.018;2023-07-16T09:00:31;10.73;;;9.03;;
23802;SDS011;12082;51.786;6.018;2023-07-16T09:02:57;11.10;;;8.57;;
23802;SDS011;12082;51.786;6.018;2023-07-16T09:05:23;11.03;;;9.83;;
23802;SDS011;12082;51.786;6.018;2023-07-16T09:07:50;13.43;;;9.20;;
23802;SDS011;12082;51.786;6.018;2023-07-16T09:10:15;13.50;;;9.00;;
23802;SDS011;12082;51.786;6.018;2023-07-16T09:12:42;10.03;;;9.03;;
23802;SDS011;12082;51.786;6.018;2023-07-16T09:15:08;9.47;;;8.57;;
23802;SDS011;12082;51.786;6.018;2023-07-16T09:17:34;9.50;;;8.57;;
23802;SDS011;12082;51.786;6.018;2023-07-16T09:20:03;10.27;;;8.10;;
23802;SDS011;12082;51.786;6.018;2023-07-16T09:22:29;10.07;;;8.97;;
23802;SDS011;12082;51.786;6.018;2023-07-16T09:24:54;10.90;;;8.27;;
23802;SDS011;12082;51.786;6.018;2023-07-16T09:27:27;10.27;;;9.37;;
23802;SDS011;12082;51.786;6.018;2023-07-16T09:29:53;12.90;;;9.97;;
23802;SDS011;12082;51.786;6.018;2023-07-16T09:32:19;10.57;;;9.50;;
23802;SDS011;12082;51.786;6.018;2023-07-16T09:34:45;11.10;;;9.03;;
23802;SDS011;12082;51.786;6.018;2023-07-16T09:37:13;13.53;;;10.83;;
23802;SDS011;12082;51.786;6.018;2023-07-16T09:39:39;11.00;;;9.83;;
23802;SDS011;12082;51.786;6.018;2023-07-16T09:42:06;10.17;;;9.17;;
23802;SDS011;12082;51.786;6.018;2023-07-16T09:44:32;10.73;;;9.63;;
23802;SDS011;12082;51.786;6.018;2023-07-16T09:46:59;12.37;;;9.30;;
23802;SDS011;12082;51.786;6.018;2023-07-16T09:49:27;12.90;;;9.20;;
23802;SDS011;12082;51.786;6.018;2023-07-16T09:51:56;12.77;;;10.50;;
23802;SDS011;12082;51.786;6.018;2023-07-16T09:54:23;13.90;;;9.80;;
23802;SDS011;12082;51.786;6.018;2023-07-16T09:56:52;11.90;;;9.87;;
23802;SDS011;12082;51.786;6.018;2023-07-16T09:59:23;12.30;;;10.60;;
23802;SDS011;12082;51.786;6.018;2023-07-16T10:01:52;12.80;;;10.20;;
23802;SDS011;12082;51.786;6.018;2023-07-16T10:04:20;11.67;;;9.77;;
23802;SDS011;12082;51.786;6.018;2023-07-16T10:12:18;12.63;;;10.27;;
23802;SDS011;12082;51.786;6.018;2023-07-16T10:14:48;11.90;;;10.47;;
23802;SDS011;12082;51.786;6.018;2023-07-16T10:17:24;13.50;;;11.30;;
23802;SDS011;12082;51.786;6.018;2023-07-16T10:20:07;14.73;;;10.90;;
23802;SDS011;12082;51.786;6.018;2023-07-16T10:22:36;12.50;;;10.50;;
23802;SDS011;12082;51.786;6.018;2023-07-16T10:25:05;14.33;;;10.60;;
23802;SDS011;12082;51.786;6.018;2023-07-16T10:27:32;11.53;;;10.50;;
23802;SDS011;12082;51.786;6.018;2023-07-16T10:30:00;14.07;;;10.90;;
23802;SDS011;12082;51.786;6.018;2023-07-16T10:32:28;12.30;;;10.93;;
23802;SDS011;12082;51.786;6.018;2023-07-16T10:34:54;11.47;;;10.00;;
23802;SDS011;12082;51.786;6.018;2023-07-16T10:37:20;13.63;;;10.67;;
23802;SDS011;12082;51.786;6.018;2023-07-16T10:39:47;13.87;;;12.67;;
23802;SDS011;12082;51.786;6.018;2023-07-16T10:42:13;12.80;;;10.30;;
23802;SDS011;12082;51.786;6.018;2023-07-16T10:44:40;12.03;;;10.93;;
23802;SDS011;12082;51.786;6.018;2023-07-16T10:47:05;12.87;;;11.73;;
23802;SDS011;12082;51.786;6.018;2023-07-16T10:49:31;10.53;;;9.43;;
23802;SDS011;12082;51.786;6.018;2023-07-16T10:52:00;11.93;;;10.67;;
23802;SDS011;12082;51.786;6.018;2023-07-16T10:54:26;11.20;;;10.10;;
23802;SDS011;12082;51.786;6.018;2023-07-16T10:56:52;11.80;;;10.60;;
23802;SDS011;12082;51.786;6.018;2023-07-16T10:59:18;10.87;;;9.83;;
23802;SDS011;12082;51.786;6.018;2023-07-16T11:01:44;14.97;;;10.90;;
23802;SDS011;12082;51.786;6.018;2023-07-16T11:04:10;12.43;;;10.43;;
23802;SDS011;12082;51.786;6.018;2023-07-16T11:06:36;11.77;;;10.67;;
23802;SDS011;12082;51.786;6.018;2023-07-16T11:09:08;12.27;;;10.93;;
23802;SDS011;12082;51.786;6.018;2023-07-16T11:11:34;11.83;;;10.43;;
23802;SDS011;12082;51.786;6.018;2023-07-16T11:14:00;9.97;;;9.17;;
23802;SDS011;12082;51.786;6.018;2023-07-16T11:16:33;10.53;;;9.73;;
23802;SDS011;12082;51.786;6.018;2023-07-16T11:19:00;10.83;;;9.80;;
23802;SDS011;12082;51.786;6.018;2023-07-16T11:21:28;9.70;;;8.90;;
23802;SDS011;12082;51.786;6.018;2023-07-16T11:23:54;12.17;;;9.93;;
23802;SDS011;12082;51.786;6.018;2023-07-16T11:26:20;11.97;;;9.37;;
23802;SDS011;12082;51.786;6.018;2023-07-16T11:28:45;10.27;;;9.27;;
23802;SDS011;12082;51.786;6.018;2023-07-16T11:31:16;10.20;;;9.23;;
23802;SDS011;12082;51.786;6.018;2023-07-16T11:33:45;10.47;;;9.57;;
23802;SDS011;12082;51.786;6.018;2023-07-16T11:36:11;12.63;;;10.00;;
23802;SDS011;12082;51.786;6.018;2023-07-16T11:38:37;10.87;;;9.83;;
23802;SDS011;12082;51.786;6.018;2023-07-16T11:41:03;11.57;;;10.00;;
23802;SDS011;12082;51.786;6.018;2023-07-16T11:43:33;13.00;;;11.80;;
23802;SDS011;12082;51.786;6.018;2023-07-16T11:46:02;11.40;;;10.00;;
23802;SDS011;12082;51.786;6.018;2023-07-16T11:48:30;11.50;;;10.53;;
23802;SDS011;12082;51.786;6.018;2023-07-16T11:50:55;12.10;;;11.00;;
23802;SDS011;12082;51.786;6.018;2023-07-16T11:53:21;12.83;;;11.57;;
23802;SDS011;12082;51.786;6.018;2023-07-16T11:55:47;13.40;;;10.53;;
23802;SDS011;12082;51.786;6.018;2023-07-16T11:58:12;13.37;;;11.37;;
23802;SDS011;12082;51.786;6.018;2023-07-16T12:00:38;11.63;;;10.40;;
23802;SDS011;12082;51.786;6.018;2023-07-16T12:03:03;11.73;;;10.77;;
23802;SDS011;12082;51.786;6.018;2023-07-16T12:05:29;15.37;;;10.13;;
23802;SDS011;12082;51.786;6.018;2023-07-16T12:07:54;12.13;;;11.00;;
23802;SDS011;12082;51.786;6.018;2023-07-16T12:10:20;13.10;;;10.47;;
23802;SDS011;12082;51.786;6.018;2023-07-16T12:12:46;10.80;;;9.80;;
23802;SDS011;12082;51.786;6.018;2023-07-16T12:15:11;13.60;;;10.50;;
23802;SDS011;12082;51.786;6.018;2023-07-16T12:17:37;10.73;;;9.80;;
23802;SDS011;12082;51.786;6.018;2023-07-16T12:20:03;11.83;;;10.83;;
23802;SDS011;12082;51.786;6.018;2023-07-16T12:22:29;11.93;;;10.83;;
23802;SDS011;12082;51.786;6.018;2023-07-16T12:24:55;11.87;;;10.63;;
23802;SDS011;12082;51.786;6.018;2023-07-16T12:27:20;13.50;;;11.23;;
23802;SDS011;12082;51.786;6.018;2023-07-16T12:29:46;12.07;;;10.87;;
23802;SDS011;12082;51.786;6.018;2023-07-16T12:32:13;12.90;;;11.87;;
23802;SDS011;12082;51.786;6.018;2023-07-16T12:34:39;12.13;;;11.00;;
23802;SDS011;12082;51.786;6.018;2023-07-16T12:37:04;16.97;;;11.87;;
23802;SDS011;12082;51.786;6.018;2023-07-16T12:39:30;11.90;;;10.97;;
23802;SDS011;12082;51.786;6.018;2023-07-16T12:41:56;12.40;;;11.20;;
23802;SDS011;12082;51.786;6.018;2023-07-16T12:44:21;11.90;;;10.87;;
23802;SDS011;12082;51.786;6.018;2023-07-16T12:46:47;16.37;;;11.10;;
23802;SDS011;12082;51.786;6.018;2023-07-16T12:49:12;12.27;;;11.27;;
23802;SDS011;12082;51.786;6.018;2023-07-16T12:51:38;11.80;;;10.60;;
23802;SDS011;12082;51.786;6.018;2023-07-16T12:54:03;11.80;;;10.60;;
23802;SDS011;12082;51.786;6.018;2023-07-16T12:56:29;14.07;;;12.10;;
23802;SDS011;12082;51.786;6.018;2023-07-16T12:58:55;13.77;;;10.60;;
23802;SDS011;12082;51.786;6.018;2023-07-16T13:01:21;12.03;;;10.97;;
23802;SDS011;12082;51.786;6.018;2023-07-16T13:03:47;13.50;;;12.13;;
23802;SDS011;12082;51.786;6.018;2023-07-16T13:06:12;13.60;;;12.20;;
23802;SDS011;12082;51.786;6.018;2023-07-16T13:08:38;11.83;;;10.83;;
23802;SDS011;12082;51.786;6.018;2023-07-16T13:11:03;11.53;;;10.57;;
23802;SDS011;12082;51.786;6.018;2023-07-16T13:13:29;13.10;;;11.73;;
23802;SDS011;12082;51.786;6.018;2023-07-16T13:15:54;12.03;;;10.87;;
23802;SDS011;12082;51.786;6.018;2023-07-16T13:18:20;11.10;;;9.87;;
23802;SDS011;12082;51.786;6.018;2023-07-16T13:20:45;12.60;;;11.33;;
23802;SDS011;12082;51.786;6.018;2023-07-16T13:23:11;13.10;;;11.80;;
23802;SDS011;12082;51.786;6.018;2023-07-16T13:25:37;11.93;;;10.40;;
23802;SDS011;12082;51.786;6.018;2023-07-16T13:28:04;12.73;;;11.40;;
23802;SDS011;12082;51.786;6.018;2023-07-16T13:30:30;11.70;;;10.70;;
23802;SDS011;12082;51.786;6.018;2023-07-16T13:32:56;12.73;;;11.73;;
23802;SDS011;12082;51.786;6.018;2023-07-16T13:35:22;15.20;;;13.60;;
23802;SDS011;12082;51.786;6.018;2023-07-16T13:37:48;19.43;;;17.70;;
23802;SDS011;12082;51.786;6.018;2023-07-16T13:40:13;20.13;;;18.30;;
23802;SDS011;12082;51.786;6.018;2023-07-16T13:42:39;23.27;;;21.40;;
23802;SDS011;12082;51.786;6.018;2023-07-16T13:45:05;22.10;;;20.07;;
23802;SDS011;12082;51.786;6.018;2023-07-16T13:47:31;20.87;;;18.80;;
23802;SDS011;12082;51.786;6.018;2023-07-16T13:49:57;17.87;;;16.37;;
23802;SDS011;12082;51.786;6.018;2023-07-16T13:52:22;13.73;;;12.80;;
23802;SDS011;12082;51.786;6.018;2023-07-16T13:54:48;13.10;;;11.80;;
23802;SDS011;12082;51.786;6.018;2023-07-16T13:57:13;13.07;;;11.67;;
23802;SDS011;12082;51.786;6.018;2023-07-16T13:59:39;10.13;;;9.07;;
23802;SDS011;12082;51.786;6.018;2023-07-16T14:02:05;10.23;;;9.33;;
23802;SDS011;12082;51.786;6.018;2023-07-16T14:04:30;9.73;;;8.30;;
23802;SDS011;12082;51.786;6.018;2023-07-16T14:06:56;8.77;;;7.87;;
23802;SDS011;12082;51.786;6.018;2023-07-16T14:09:22;9.53;;;8.17;;
23802;SDS011;12082;51.786;6.018;2023-07-16T14:11:48;14.70;;;8.53;;
23802;SDS011;12082;51.786;6.018;2023-07-16T14:14:14;8.90;;;8.00;;
23802;SDS011;12082;51.786;6.018;2023-07-16T14:16:40;8.80;;;8.10;;
23802;SDS011;12082;51.786;6.018;2023-07-16T14:19:06;10.67;;;8.50;;
23802;SDS011;12082;51.786;6.018;2023-07-16T14:21:31;9.93;;;9.20;;
23802;SDS011;12082;51.786;6.018;2023-07-16T14:23:57;9.33;;;8.20;;
23802;SDS011;12082;51.786;6.018;2023-07-16T14:26:23;10.67;;;9.00;;
23802;SDS011;12082;51.786;6.018;2023-07-16T14:28:49;9.50;;;8.80;;